»·PEaware :: UAL345 KBOI-KPDX

UAL345 :: KBOI-KPDX

FLIGHT INFORMATION

Flight Status: Arrived
Operator:
United Airlines
More flights by this operator :: More flights under this callsign
Pilot: Anonymous 12161 (12161)
Aircraft: AIRBUS A320
(A320)
More flights by this aircraft type
Origin: KBOI Boise Air Terminal/Gowen
United States
Destination: KPDX Portland Intl
United States
More flights between these airports :: More routes between these airports
Route: SAILL BUEEL JOTBA HHOOD4
File this flight plan on PilotEdge
Remarks:
Altitude:
(Current/Filed)
34,000ft
Speed:
(Current/Filed)
416kts
Departed: 15-Mar-20 12:41 PM
Arrived: 15-Mar-20 01:40 PM
Distance/Time
Traveled:
298nm/0:59
Distance/Time
To Go:
Arrived

Flight Plot

Page will automatically refresh every two minutes.


Map Options




Map Legend


Flown Route
Filed Route
Departure Airport
Arrival Airport
Navaid (VOR, NDB)
Fix

Horizontal Profiles

Position Reports

Time Latitude Longitude Heading Altitude Ground
Speed
15-Mar-20 12:20 43.567242 -116.220751 24 2851ft 0kts
15-Mar-20 12:21 43.567242 -116.220751 24 2851ft 0kts
15-Mar-20 12:22 43.567242 -116.220752 24 2851ft 0kts
15-Mar-20 12:23 43.567242 -116.220752 24 2851ft 0kts
15-Mar-20 12:24 43.567242 -116.220752 24 2851ft 0kts
15-Mar-20 12:25 43.567242 -116.220752 24 2851ft 0kts
15-Mar-20 12:26 43.567242 -116.220752 24 2851ft 0kts
15-Mar-20 12:27 43.567242 -116.220752 24 2851ft 0kts
15-Mar-20 12:28 43.567242 -116.220752 24 2851ft 0kts
15-Mar-20 12:29 43.567242 -116.220752 24 2851ft 0kts
15-Mar-20 12:30 43.567242 -116.220752 24 2851ft 0kts
15-Mar-20 12:31 43.567242 -116.220752 24 2851ft 0kts
15-Mar-20 12:32 43.567089 -116.220888 34 2851ft 2kts
15-Mar-20 12:33 43.566693 -116.221032 293 2851ft 1kts
15-Mar-20 12:34 43.566676 -116.220969 285 2851ft 0kts
15-Mar-20 12:35 43.566676 -116.220969 285 2851ft 0kts
15-Mar-20 12:36 43.566676 -116.220969 285 2851ft 0kts
15-Mar-20 12:37 43.567602 -116.226681 286 2847ft 35kts
15-Mar-20 12:38 43.570559 -116.235272 287 2832ft 5kts
15-Mar-20 12:39 43.570485 -116.235902 219 2831ft 0kts
15-Mar-20 12:40 43.568665 -116.233284 114 2836ft 73kts
15-Mar-20 12:41 43.550401 -116.179857 127 5805ft 186kts
15-Mar-20 12:42 43.501055 -116.202863 251 9124ft 277kts
15-Mar-20 12:43 43.521543 -116.315237 286 12142ft 338kts
15-Mar-20 12:44 43.552434 -116.434736 285 15350ft 354kts
15-Mar-20 12:46 43.586137 -116.565244 284 18356ft 368kts
15-Mar-20 12:47 43.620951 -116.700568 282 21014ft 380kts
15-Mar-20 12:48 43.656847 -116.840861 282 23398ft 392kts
15-Mar-20 12:49 43.693571 -116.985269 282 25439ft 405kts
15-Mar-20 12:50 43.733478 -117.135411 286 27184ft 425kts
15-Mar-20 12:51 43.781441 -117.287518 286 28851ft 436kts
15-Mar-20 12:52 43.830165 -117.443133 286 30369ft 446kts
15-Mar-20 12:53 43.881263 -117.602003 291 31768ft 460kts
15-Mar-20 12:54 43.949703 -117.751672 294 33670ft 455kts
15-Mar-20 12:55 44.018043 -117.900346 294 34029ft 455kts
15-Mar-20 12:56 44.085417 -118.047636 294 34028ft 463kts
15-Mar-20 12:57 44.155088 -118.200561 294 34026ft 466kts
15-Mar-20 12:58 44.224192 -118.353187 294 34031ft 465kts
15-Mar-20 12:59 44.293198 -118.506348 294 34052ft 466kts
15-Mar-20 13:00 44.360775 -118.657141 293 34047ft 466kts
15-Mar-20 13:01 44.429372 -118.811025 293 34050ft 465kts
15-Mar-20 13:02 44.497224 -118.964065 295 33997ft 469kts
15-Mar-20 13:03 44.566349 -119.120783 296 34014ft 474kts
15-Mar-20 13:04 44.635739 -119.278999 296 34044ft 476kts
15-Mar-20 13:05 44.704743 -119.437204 296 34028ft 473kts
15-Mar-20 13:05 44.761816 -119.568736 296 34028ft 474kts
15-Mar-20 13:07 44.841099 -119.752438 296 34038ft 475kts
15-Mar-20 13:08 44.909500 -119.911898 295 34140ft 475kts
15-Mar-20 13:08 44.965228 -120.042510 295 34265ft 459kts
15-Mar-20 13:09 45.031089 -120.197615 297 34269ft 463kts
15-Mar-20 13:10 45.097280 -120.354331 298 34154ft 464kts
15-Mar-20 13:12 45.173216 -120.536377 296 31645ft 460kts
15-Mar-20 13:12 45.223645 -120.667019 296 29793ft 448kts
15-Mar-20 13:13 45.282205 -120.819351 296 27554ft 434kts
15-Mar-20 13:14 45.338781 -120.967322 296 25317ft 420kts
15-Mar-20 13:15 45.393575 -121.111372 298 23073ft 408kts
15-Mar-20 13:16 45.439199 -121.256727 285 20828ft 398kts
15-Mar-20 13:17 45.468383 -121.404943 285 19018ft 378kts
15-Mar-20 13:18 45.496481 -121.547126 285 16950ft 369kts
15-Mar-20 13:19 45.523717 -121.685673 284 15276ft 349kts
15-Mar-20 13:20 45.533151 -121.816851 270 14085ft 325kts
15-Mar-20 13:21 45.537719 -121.944602 271 12694ft 319kts
15-Mar-20 13:22 45.560894 -122.065885 285 11359ft 314kts
15-Mar-20 13:23 45.585608 -122.184649 285 10108ft 307kts
15-Mar-20 13:24 45.609721 -122.301143 285 8780ft 302kts
15-Mar-20 13:25 45.633424 -122.416326 286 7236ft 299kts
15-Mar-20 13:26 45.663187 -122.519391 298 6205ft 274kts
15-Mar-20 13:27 45.697237 -122.614208 299 5235ft 256kts
15-Mar-20 13:28 45.728528 -122.700670 298 3942ft 246kts
15-Mar-20 13:29 45.760690 -122.789656 298 3013ft 239kts
15-Mar-20 13:30 45.786406 -122.868696 291 2993ft 207kts
15-Mar-20 13:31 45.773089 -122.931922 178 2995ft 192kts
15-Mar-20 13:32 45.724332 -122.908874 141 2993ft 184kts
15-Mar-20 13:33 45.694808 -122.851124 117 2997ft 179kts
15-Mar-20 13:34 45.670268 -122.788579 117 2973ft 188kts
15-Mar-20 13:35 45.647447 -122.730326 115 2162ft 140kts
15-Mar-20 13:36 45.631450 -122.689382 112 1518ft 113kts
15-Mar-20 13:37 45.616107 -122.650140 113 913ft 112kts
15-Mar-20 13:38 45.601092 -122.611682 113 325ft 110kts
15-Mar-20 13:39 45.589802 -122.582575 127 38ft 19kts
15-Mar-20 13:40 45.588713 -122.582150 202 38ft 0kts
15-Mar-20 13:41 45.589222 -122.584431 297 38ft 26kts

Navigation Log

Ident Type
Flight plan parsing failed, navigation log unavailable